Résultats

Cross Marseille Méditerranée:C08:BEF. Édition 2012.

2 Km
16/12/2012 à 00:00:00 - ()
59 arrivant(e)s.


 
Les autres classements de cet évènement




Place▲ Temps Dossard Nom Prenom Categ #Categ Sexe #Sexe ClubVit Moy Diplôme Partager
1 00:06:54 1726 PELICER MELINE BEF 1 F 1 SCO STE MARGUERITE MARSEILLE17.39
2 00:06:57 1871 AZAS JULIE BEF 2 F 2 STADIUM CLUB MARIGNANAIS17.27
3 00:07:18 877 AIRAUDI ALISON BEF 3 F 3 OM ATHLE16.44
4 00:07:30 792 DEGRANGE ALICIA BEF 4 F 4 MARTIGUES SPORT ATHLETISME16.00
5 00:07:34 492 YOUNSI APPOLINE BEF 5 F 5 ALES CEVENE ATHLE15.86
6 00:07:45 2554 SEGOR KEZIAH BEF 6 F 6 UAVH AUBAGNE15.48
7 00:07:51 391 COHEN EVA BEF 7 F 7 AIX ATHLE PROVENCE15.29
8 00:07:55 1841 GAUSSEN NIKITA BEF 8 F 8 STADE OLYMPIQUE ARLESIEN15.16
9 00:07:56 1016 GIACALONE FANNY BEF 9 F 9 OM ATHLE15.13
10 00:07:58 734 GENTY LYDICE BEF 10 F 10 CSP PERTUIS9.90
11 00:07:58 1088 MEDIOUB SIRINE BEF 11 F 11 OM ATHLE9.90
12 00:07:59 134 MANDI LISA BEF 12 F 12 AC MIRAMAS9.90
13 00:08:01 2574 ALDAY MATHILDE BEF 13 F 13 USAM TOULON14.97
14 00:08:07 727 ALLAIS JULIA BEF 14 F 14 CSP PERTUIS14.78
15 00:08:08 213 JOUSLIN ADELE BEF 15 F 15 AC SALON14.75
16 00:08:09 284 ADJEMOUT JULIE BEF 16 F 16 ACP MARSEILLE14.72
17 00:08:10 1649 GRECK ELISA BEF 17 F 17 SCO STE MARGUERITE MARSEILLE14.69
18 00:08:11 2612 MAURE MARION BEF 18 F 18 USC SEPTEMES14.66
19 00:08:12 1384 NAPOLITANO CARLA BEF 19 F 19 S/L STADE MARSEILLAIS U. C.14.63
20 00:08:12 235 MARTINEZ LAURA BEF 20 F 20 AC SALON14.63
21 00:08:15 800 ANSAS LAURE BEF 21 F 21 MJC DE PLAN DE CUQUES14.55
22 00:08:21 2586 ZAIANI YASMINE BEF 22 F 22 USAM TOULON14.37
23 00:08:23 386 CAVALIE HUGO BEM 1 M 1 AIX ATHLE PROVENCE14.31
24 00:08:24 2575 AMIMI LINDA BEF 23 F 23 USAM TOULON14.29
25 00:08:25 847 SEUSSE LAURIANE BEF 24 F 24 MJC DE PLAN DE CUQUES14.26
26 00:08:29 2583 NACHON ANAELLE BEF 25 F 25 USAM TOULON14.15
27 00:08:31 1121 PORCET ELIA MIF 1 F 26 OM ATHLE9.90
28 00:08:35 1348 LAROCHE LOLA BEF 26 F 27 S/L STADE MARSEILLAIS U. C.13.98
29 00:08:36 870 VETROFF DORINE BEF 27 F 28 OCC CABRIES CALAS13.95
30 00:08:37 1037 HAUSMANN GHITA BEF 28 F 29 OM ATHLE13.93
31 00:08:41 418 LEBRETON MELISSA BEF 29 F 30 AIX ATHLE PROVENCE13.82
32 00:08:42 1921 CHANGEUX MARIE BEF 30 F 31 UAVH AUBAGNE13.79
33 00:08:43 2508 MATHIEU VALENTINE BEF 31 F 32 UAVH AUBAGNE13.77
34 00:08:47 842 RAYNAL ESTELLE BEF 32 F 33 MJC DE PLAN DE CUQUES13.66
35 00:08:48 139 NEUSSAINT PRESCILLIA BEF 33 F 34 AC MIRAMAS13.64
36 00:08:49 2745 DELAHAYE MARION BEF 34 F 35 VSA13.61
37 00:08:49 732 DURAND-DAGICOUR ALICE BEF 35 F 36 CSP PERTUIS13.61
38 00:08:50 207 HUSSENOT GABRIELLE BEF 36 F 37 AC SALON13.58
39 00:08:51 2836 BOURNONVILLE ELSA BEF 37 F 38 AC SALON13.56
40 00:08:55 1439 STEFANINI EUGENIE BEF 38 F 39 S/L STADE MARSEILLAIS U. C.13.46
41 00:09:11 264 SCUEIL LEA BEF 39 F 40 AC SALON9.90
42 00:09:12 154 WAXIN KATHY BEF 40 F 41 AC MIRAMAS9.90
43 00:09:13 1598 DOSIERE CELIA BEF 41 F 42 SCO STE MARGUERITE MARSEILLE9.90
44 00:09:14 237 MAXENCE MATHILDE BEF 42 F 43 AC SALON13.00
45 00:09:15 808 CADINU AMELIE BEF 43 F 44 MJC DE PLAN DE CUQUES9.90
46 00:09:18 801 BAGNOLE CAMILLE BEF 44 F 45 MJC DE PLAN DE CUQUES9.90
47 00:09:19 874 ABOURAHIM DAMIR POM 1 M 2 OM ATHLE9.90
48 00:09:20 979 DEWEZ MARION BEF 45 F 46 OM ATHLE9.90
49 00:09:47 1861 PONCHON JULIETTE BEF 46 F 47 STADE OLYMPIQUE ARLESIEN9.90
50 00:10:03 229 MARCEAU-MARY JADE BEF 47 F 48 AC SALON9.90
51 00:10:20 1588 DELATTRE EMMA BEF 48 F 49 SCO STE MARGUERITE MARSEILLE9.90
52 00:10:24 1833 CATALANO LENA BEF 49 F 50 STADE OLYMPIQUE ARLESIEN9.90
53 00:10:32 61 MENEGALLI CHARLOTTE BEF 50 F 51 9.90
54 00:10:48 737 HERNANDEZ JOANNA BEF 51 F 52 CSP PERTUIS9.90
55 00:10:52 439 RANNOU CLEMENCE BEF 52 F 53 AIX ATHLE PROVENCE9.90
56 00:10:54 858 COLMEZ TINA BEF 53 F 54 OCC CABRIES CALAS9.90
57 00:10:58 387 CAVALIE MARIE BEF 54 F 55 AIX ATHLE PROVENCE9.90
58 00:11:05 1342 L'ANTHOEN AGATHE BEF 55 F 56 S/L STADE MARSEILLAIS U. C.9.90
59 00:16:00 2626 BABAHAN HELIN BEF 56 F 57 USPEG MARSEILLE9.90